Time;durP1;ratioP1;P1;durP2;ratioP2;P2;SDS_P1;SDS_P2;PMS_P1;PMS_P2;Temp;Humidity;BMP_temperature;BMP_pressure;BME280_temperature;BME280_humidity;BME280_pressure;Samples;Min_cycle;Max_cycle;Signal;HPM_P1;HPM_P2
2024/02/23 00:02:04;;;;;;;1.42;0.35;;;9.50;83.60;;;;;;5006725;28;20069;-62
2024/02/23 00:04:30;;;;;;;0.22;0.15;;;9.50;83.40;;;;;;5009627;28;20493;-62
2024/02/23 00:06:56;;;;;;;0.77;0.10;;;9.40;83.10;;;;;;5010084;28;20172;-63
2024/02/23 00:09:22;;;;;;;0.93;0.30;;;9.40;82.60;;;;;;5008361;28;20038;-62
2024/02/23 00:11:49;;;;;;;0.73;0.10;;;9.40;82.60;;;;;;5008940;28;20489;-62
2024/02/23 00:14:18;;;;;;;0.75;0.10;;;9.40;82.30;;;;;;5004260;28;20156;-62
2024/02/23 00:16:44;;;;;;;0.50;0.15;;;9.30;81.70;;;;;;5006191;28;20125;-61
2024/02/23 00:19:10;;;;;;;0.93;0.10;;;9.30;82.00;;;;;;5010235;28;20113;-63
2024/02/23 00:21:36;;;;;;;0.82;0.10;;;9.40;81.70;;;;;;5006542;28;20050;-62
2024/02/23 00:24:02;;;;;;;0.90;0.15;;;9.30;80.60;;;;;;5010805;28;20064;-63
2024/02/23 00:26:29;;;;;;;0.40;0.10;;;9.30;81.00;;;;;;5001016;28;20038;-63
2024/02/23 00:28:55;;;;;;;0.50;0.10;;;9.30;80.20;;;;;;5006272;28;20337;-62
2024/02/23 00:31:20;;;;;;;0.73;0.10;;;9.20;80.50;;;;;;5007974;28;20154;-62
2024/02/23 00:33:46;;;;;;;0.50;0.13;;;9.20;79.90;;;;;;5006987;28;20041;-62
2024/02/23 00:36:12;;;;;;;1.58;0.20;;;9.20;80.10;;;;;;5007328;28;20030;-61
2024/02/23 00:38:37;;;;;;;0.13;0.10;;;9.20;79.90;;;;;;5010928;28;20049;-62
2024/02/23 00:41:03;;;;;;;0.03;0.00;;;9.20;80.10;;;;;;5013088;28;20492;-62
2024/02/23 00:43:29;;;;;;;0.40;0.10;;;9.20;79.80;;;;;;5008487;28;20523;-63
2024/02/23 00:45:55;;;;;;;0.90;0.15;;;9.20;79.90;;;;;;5007120;28;20183;-62
2024/02/23 00:48:21;;;;;;;0.75;0.20;;;9.20;80.10;;;;;;5008022;28;20034;-62
2024/02/23 00:50:46;;;;;;;0.38;0.10;;;9.20;80.10;;;;;;5008955;28;20030;-62
2024/02/23 00:53:12;;;;;;;0.45;0.20;;;9.10;80.10;;;;;;5002894;28;20355;-62
2024/02/23 00:55:37;;;;;;;1.20;0.20;;;9.10;80.10;;;;;;5006277;28;20108;-62
2024/02/23 00:58:03;;;;;;;1.05;0.10;;;9.10;79.80;;;;;;5007887;28;20038;-63
2024/02/23 01:00:29;;;;;;;0.63;0.10;;;9.20;79.60;;;;;;5002924;28;20042;-62
2024/02/23 01:02:55;;;;;;;0.35;0.10;;;9.10;79.90;;;;;;5005695;28;20108;-62
2024/02/23 01:05:20;;;;;;;0.20;0.10;;;9.10;80.10;;;;;;5008560;28;20038;-61
2024/02/23 01:07:46;;;;;;;0.03;0.00;;;9.10;80.10;;;;;;5007254;28;20497;-62
2024/02/23 01:10:11;;;;;;;0.47;0.10;;;9.10;80.20;;;;;;5009346;28;20131;-63
2024/02/23 01:12:37;;;;;;;0.30;0.00;;;9.00;80.40;;;;;;5007587;28;20038;-62
2024/02/23 01:15:03;;;;;;;0.00;0.00;;;9.00;80.30;;;;;;5007945;28;20057;-62
2024/02/23 01:17:29;;;;;;;0.00;0.00;;;9.00;80.30;;;;;;5001810;28;20084;-62
2024/02/23 01:19:54;;;;;;;0.57;0.00;;;9.00;80.50;;;;;;5007101;28;20038;-62
2024/02/23 01:22:20;;;;;;;0.22;0.10;;;9.00;80.80;;;;;;5006545;28;20053;-62
2024/02/23 01:24:45;;;;;;;0.00;0.00;;;8.90;80.80;;;;;;5006439;28;20038;-62
2024/02/23 01:27:11;;;;;;;0.30;0.00;;;8.90;80.70;;;;;;5001669;28;20042;-63
2024/02/23 01:29:36;;;;;;;0.20;0.00;;;8.90;80.90;;;;;;5006191;28;20022;-62
2024/02/23 01:32:02;;;;;;;0.10;0.10;;;8.80;81.10;;;;;;5009825;28;20061;-62
2024/02/23 01:34:28;;;;;;;0.00;0.00;;;8.80;81.10;;;;;;5005240;28;20061;-61
2024/02/23 01:36:53;;;;;;;0.10;0.00;;;8.70;81.40;;;;;;5007246;28;20038;-62
2024/02/23 01:39:19;;;;;;;1.15;0.15;;;8.60;81.70;;;;;;5001670;28;20038;-62
2024/02/23 01:41:45;;;;;;;0.40;0.00;;;8.70;82.10;;;;;;5006277;28;20421;-61
2024/02/23 01:44:11;;;;;;;0.40;0.00;;;8.60;82.40;;;;;;5006859;28;20540;-62
2024/02/23 01:46:37;;;;;;;0.22;0.00;;;8.50;81.90;;;;;;5008508;28;20048;-62
2024/02/23 01:49:04;;;;;;;0.00;0.00;;;8.40;81.20;;;;;;5006743;28;20041;-61
2024/02/23 01:51:31;;;;;;;0.20;0.00;;;8.30;81.20;;;;;;5004168;28;20034;-62
2024/02/23 01:53:57;;;;;;;0.10;0.00;;;8.10;81.30;;;;;;5002998;28;20042;-61
2024/02/23 01:56:22;;;;;;;0.00;0.00;;;7.90;81.50;;;;;;5006406;28;20042;-61
2024/02/23 01:58:48;;;;;;;0.10;0.00;;;7.70;82.40;;;;;;5002754;28;20037;-62
2024/02/23 02:01:14;;;;;;;0.10;0.00;;;7.60;83.30;;;;;;5006762;28;20038;-61
2024/02/23 02:03:40;;;;;;;0.00;0.00;;;7.50;84.20;;;;;;5007696;28;20468;-63
2024/02/23 02:06:06;;;;;;;0.30;0.00;;;7.40;84.80;;;;;;5007259;28;20498;-60
2024/02/23 02:08:34;;;;;;;0.10;0.00;;;7.40;85.30;;;;;;5006205;28;20057;-62
2024/02/23 02:11:00;;;;;;;0.00;0.00;;;7.30;85.50;;;;;;5007644;28;20026;-62
2024/02/23 02:13:25;;;;;;;0.00;0.00;;;7.30;85.50;;;;;;5000791;28;20030;-61
2024/02/23 02:15:51;;;;;;;0.00;0.00;;;7.40;85.70;;;;;;5006539;28;20556;-62
2024/02/23 02:18:16;;;;;;;0.00;0.00;;;7.40;85.70;;;;;;5004570;28;20037;-61
2024/02/23 02:20:52;;;;;;;0.00;0.00;;;7.40;85.70;;;;;;5002287;28;20076;-62
2024/02/23 02:23:17;;;;;;;0.10;0.00;;;7.40;85.80;;;;;;5022091;28;20135;-61
2024/02/23 02:25:43;;;;;;;0.10;0.00;;;7.50;85.60;;;;;;5005896;28;24173;-60
2024/02/23 02:28:08;;;;;;;0.05;0.00;;;7.50;85.50;;;;;;5006105;28;20045;-62
2024/02/23 02:30:34;;;;;;;0.10;0.00;;;7.50;85.30;;;;;;5006706;28;20444;-61
2024/02/23 02:33:00;;;;;;;0.00;0.00;;;7.50;85.10;;;;;;5006432;28;20038;-60
2024/02/23 02:35:25;;;;;;;0.10;0.00;;;7.50;85.00;;;;;;5004540;28;20168;-60
2024/02/23 02:37:51;;;;;;;0.95;0.00;;;7.50;85.10;;;;;;5005875;28;20042;-61
2024/02/23 02:40:16;;;;;;;0.00;0.00;;;7.50;85.00;;;;;;5010997;28;20509;-61
2024/02/23 02:42:42;;;;;;;0.10;0.00;;;7.50;84.90;;;;;;5009477;28;20053;-62
2024/02/23 02:45:08;;;;;;;0.10;0.00;;;7.50;84.80;;;;;;5008861;28;20030;-60
2024/02/23 02:47:33;;;;;;;0.13;0.00;;;7.60;84.80;;;;;;5008639;28;20034;-62
2024/02/23 02:49:59;;;;;;;0.00;0.00;;;7.50;84.60;;;;;;5009382;28;20585;-61
2024/02/23 02:52:24;;;;;;;0.10;0.00;;;7.60;84.60;;;;;;5008875;28;20448;-62
2024/02/23 02:54:50;;;;;;;0.03;0.00;;;7.60;84.40;;;;;;5003882;28;20037;-61
2024/02/23 02:57:16;;;;;;;0.00;0.00;;;7.50;84.20;;;;;;5011822;28;20034;-61
2024/02/23 02:59:42;;;;;;;0.00;0.00;;;7.60;84.20;;;;;;5008521;28;20061;-62
2024/02/23 03:02:07;;;;;;;0.10;0.00;;;7.50;84.10;;;;;;5007392;28;20568;-61
2024/02/23 03:04:33;;;;;;;0.00;0.00;;;7.50;84.00;;;;;;5010643;28;20104;-61
2024/02/23 03:06:58;;;;;;;0.13;0.03;;;7.50;84.00;;;;;;5012941;28;20041;-61
2024/02/23 03:09:24;;;;;;;0.03;0.00;;;7.50;83.70;;;;;;5009101;28;20034;-60
2024/02/23 03:11:50;;;;;;;0.00;0.00;;;7.50;83.50;;;;;;5006247;28;20456;-61
2024/02/23 03:14:18;;;;;;;0.00;0.00;;;7.50;83.50;;;;;;5012943;28;20038;-62
2024/02/23 03:16:43;;;;;;;0.63;0.10;;;7.40;83.40;;;;;;5006220;28;20038;-62
2024/02/23 03:19:09;;;;;;;0.10;0.00;;;7.40;83.30;;;;;;5005420;28;20034;-61
2024/02/23 03:21:35;;;;;;;0.60;0.00;;;7.40;83.10;;;;;;5007185;28;20389;-62
2024/02/23 03:24:00;;;;;;;0.82;0.10;;;7.40;82.80;;;;;;5009937;28;20034;-62
2024/02/23 03:26:26;;;;;;;0.20;0.10;;;7.40;82.80;;;;;;5009143;28;20607;-63
2024/02/23 03:28:51;;;;;;;1.67;0.10;;;7.30;82.70;;;;;;5012271;28;20029;-62
2024/02/23 03:31:17;;;;;;;0.52;0.20;;;7.30;82.90;;;;;;5015592;28;20042;-62
2024/02/23 03:33:42;;;;;;;0.30;0.10;;;7.30;82.80;;;;;;5007044;28;20030;-62
2024/02/23 03:36:08;;;;;;;2.08;0.10;;;7.20;82.50;;;;;;5008956;28;20117;-62
2024/02/23 03:38:34;;;;;;;0.68;0.20;;;7.20;82.40;;;;;;5011871;28;20475;-62
2024/02/23 03:41:00;;;;;;;2.40;0.20;;;7.20;82.60;;;;;;5006196;28;20039;-60
2024/02/23 03:43:26;;;;;;;0.20;0.03;;;7.20;82.20;;;;;;5011563;28;20042;-62
2024/02/23 03:45:52;;;;;;;0.20;0.10;;;7.20;82.40;;;;;;5011685;28;20045;-62
2024/02/23 03:48:18;;;;;;;1.35;0.15;;;7.20;82.20;;;;;;5012954;28;20026;-62
2024/02/23 03:50:43;;;;;;;0.28;0.10;;;7.20;82.30;;;;;;5006981;28;20455;-62
2024/02/23 03:53:09;;;;;;;0.50;0.00;;;7.20;82.40;;;;;;5010200;28;20038;-62
2024/02/23 03:55:34;;;;;;;0.28;0.00;;;7.20;83.10;;;;;;5006447;28;20052;-62
2024/02/23 03:58:00;;;;;;;0.25;0.10;;;7.30;82.10;;;;;;5006593;28;20058;-62
2024/02/23 04:00:26;;;;;;;0.93;0.00;;;7.20;81.90;;;;;;5007061;28;20438;-61
2024/02/23 04:02:52;;;;;;;1.23;0.10;;;7.20;81.50;;;;;;5008051;28;20544;-62
2024/02/23 04:05:18;;;;;;;0.32;0.10;;;7.30;81.80;;;;;;5007000;28;20350;-61
2024/02/23 04:07:44;;;;;;;0.20;0.10;;;7.30;81.70;;;;;;5009409;28;20046;-61
2024/02/23 04:10:10;;;;;;;1.27;0.03;;;7.20;81.70;;;;;;5008770;28;20045;-62
2024/02/23 04:12:35;;;;;;;0.10;0.00;;;7.20;81.60;;;;;;5007637;28;20033;-62
2024/02/23 04:15:01;;;;;;;1.25;0.00;;;7.30;81.70;;;;;;4999936;28;20070;-62
2024/02/23 04:17:26;;;;;;;0.20;0.10;;;7.30;81.60;;;;;;5004507;28;20493;-62
2024/02/23 04:19:52;;;;;;;0.08;0.00;;;7.30;81.60;;;;;;5010003;28;20030;-61
2024/02/23 04:22:17;;;;;;;0.13;0.10;;;7.30;81.40;;;;;;5005553;28;20045;-61
2024/02/23 04:24:44;;;;;;;1.65;0.10;;;7.30;82.20;;;;;;5004124;28;20038;-61
2024/02/23 04:27:10;;;;;;;1.02;0.10;;;7.30;81.30;;;;;;5004822;28;20037;-62
2024/02/23 04:29:36;;;;;;;0.43;0.08;;;7.30;81.20;;;;;;5006212;28;20222;-61
2024/02/23 04:32:02;;;;;;;0.10;0.08;;;7.30;81.30;;;;;;5011125;28;20103;-62
2024/02/23 04:34:28;;;;;;;0.10;0.00;;;7.30;81.30;;;;;;5010944;28;20519;-61
2024/02/23 04:36:54;;;;;;;0.38;0.00;;;7.30;81.40;;;;;;5010892;28;20125;-62
2024/02/23 04:39:20;;;;;;;0.93;0.20;;;7.30;81.40;;;;;;5014128;28;20165;-62
2024/02/23 04:41:45;;;;;;;0.40;0.10;;;7.30;81.60;;;;;;5010648;28;20049;-62
2024/02/23 04:44:11;;;;;;;0.60;0.10;;;7.20;81.50;;;;;;5011155;28;20041;-62
2024/02/23 04:46:37;;;;;;;0.80;0.00;;;7.20;81.50;;;;;;5010749;28;20038;-62
2024/02/23 04:49:02;;;;;;;0.85;0.13;;;7.20;81.70;;;;;;5009271;28;20509;-62
2024/02/23 04:51:28;;;;;;;2.35;0.20;;;7.20;81.90;;;;;;5010158;28;20789;-62
2024/02/23 04:53:53;;;;;;;0.63;0.00;;;7.20;82.00;;;;;;5010763;28;20030;-62
2024/02/23 04:56:20;;;;;;;0.80;0.50;;;7.20;82.20;;;;;;5013263;28;20030;-62
2024/02/23 04:58:46;;;;;;;1.00;0.30;;;7.20;82.40;;;;;;5010738;28;20088;-62
2024/02/23 05:01:12;;;;;;;0.40;0.40;;;7.20;82.40;;;;;;5010733;28;20506;-62
2024/02/23 05:03:38;;;;;;;0.98;0.88;;;7.20;83.30;;;;;;5010507;28;20049;-62
2024/02/23 05:06:04;;;;;;;0.80;0.40;;;7.20;82.50;;;;;;5010339;28;20044;-62
2024/02/23 05:08:30;;;;;;;0.40;0.20;;;7.20;82.50;;;;;;5009161;28;20034;-62
2024/02/23 05:10:59;;;;;;;0.32;0.25;;;7.20;82.60;;;;;;5010495;28;20401;-62
2024/02/23 05:13:24;;;;;;;0.20;0.20;;;7.20;83.40;;;;;;5010325;28;20079;-61
2024/02/23 05:15:50;;;;;;;0.30;0.17;;;7.20;82.60;;;;;;5010002;28;20037;-62
2024/02/23 05:18:16;;;;;;;0.40;0.30;;;7.20;82.70;;;;;;5010320;28;20038;-62
2024/02/23 05:20:41;;;;;;;0.20;0.10;;;7.20;82.70;;;;;;5005967;28;20038;-62
2024/02/23 05:23:07;;;;;;;0.52;0.10;;;7.10;82.50;;;;;;5002928;28;20118;-62
2024/02/23 05:25:33;;;;;;;0.68;0.30;;;7.10;82.50;;;;;;5003120;28;20069;-62
2024/02/23 05:27:58;;;;;;;0.22;0.10;;;7.10;83.30;;;;;;5003412;28;20034;-62
2024/02/23 05:30:26;;;;;;;0.70;0.10;;;7.10;82.60;;;;;;5002041;28;20041;-62
2024/02/23 05:32:52;;;;;;;0.47;0.00;;;7.00;82.60;;;;;;5004807;28;20041;-62
2024/02/23 05:35:17;;;;;;;0.85;0.10;;;6.90;82.50;;;;;;5005052;28;20029;-62
2024/02/23 05:37:43;;;;;;;0.10;0.10;;;7.00;82.60;;;;;;5001458;28;20069;-62
2024/02/23 05:40:12;;;;;;;1.83;0.40;;;6.90;82.50;;;;;;5005488;28;20052;-61
2024/02/23 05:42:38;;;;;;;0.80;0.30;;;6.90;82.60;;;;;;5005258;28;20364;-61
2024/02/23 05:45:08;;;;;;;1.58;0.20;;;6.90;82.60;;;;;;5004670;28;20029;-62
2024/02/23 05:47:35;;;;;;;0.30;0.10;;;6.90;82.60;;;;;;5007148;28;20077;-62
2024/02/23 05:50:03;;;;;;;0.28;0.15;;;6.80;82.60;;;;;;5003731;28;20441;-62
2024/02/23 05:52:29;;;;;;;1.75;0.50;;;6.80;82.60;;;;;;5005576;28;20041;-62
2024/02/23 05:54:55;;;;;;;1.10;0.30;;;6.80;82.70;;;;;;4998005;28;20069;-61
2024/02/23 05:57:21;;;;;;;1.05;0.30;;;6.80;82.80;;;;;;5003707;28;20042;-62
2024/02/23 05:59:47;;;;;;;0.82;0.30;;;6.80;82.80;;;;;;5007447;28;20060;-62
2024/02/23 06:02:13;;;;;;;0.70;0.30;;;6.80;82.90;;;;;;5002953;28;20049;-61
2024/02/23 06:04:40;;;;;;;1.33;0.32;;;6.80;82.90;;;;;;5005262;28;20045;-60
2024/02/23 06:07:06;;;;;;;0.57;0.40;;;6.70;82.70;;;;;;5004441;28;20036;-62
2024/02/23 06:09:31;;;;;;;1.23;0.40;;;6.80;82.70;;;;;;5004010;28;20034;-61
2024/02/23 06:11:57;;;;;;;0.57;0.20;;;6.70;82.60;;;;;;5003862;28;20153;-62
2024/02/23 06:14:23;;;;;;;1.95;0.30;;;6.80;82.60;;;;;;5006454;28;20052;-62
2024/02/23 06:16:49;;;;;;;1.13;0.30;;;6.80;82.50;;;;;;4998002;28;20415;-60
2024/02/23 06:19:15;;;;;;;0.35;0.20;;;6.80;82.40;;;;;;5003849;28;20038;-62
2024/02/23 06:21:41;;;;;;;0.73;0.25;;;6.80;83.10;;;;;;5005155;28;20041;-62
2024/02/23 06:24:10;;;;;;;0.65;0.10;;;6.80;82.30;;;;;;5005910;28;20242;-62
2024/02/23 06:26:35;;;;;;;1.02;0.30;;;6.80;82.30;;;;;;4999727;28;20030;-62
2024/02/23 06:29:01;;;;;;;0.50;0.20;;;6.80;82.20;;;;;;5002537;28;20037;-62
2024/02/23 06:31:26;;;;;;;1.30;0.25;;;6.80;82.20;;;;;;5003115;28;20026;-62
2024/02/23 06:33:52;;;;;;;2.63;0.25;;;6.80;82.20;;;;;;5003264;28;20119;-62
2024/02/23 06:36:18;;;;;;;1.60;0.43;;;6.80;82.00;;;;;;5002080;28;20058;-60
2024/02/23 06:38:44;;;;;;;1.95;0.40;;;6.80;82.00;;;;;;5002253;28;20034;-61
2024/02/23 06:41:11;;;;;;;0.95;0.20;;;6.80;82.00;;;;;;5002096;28;20476;-62
2024/02/23 06:43:37;;;;;;;2.85;0.50;;;6.80;81.90;;;;;;5005482;28;20156;-62
2024/02/23 06:46:08;;;;;;;2.42;0.30;;;6.80;81.90;;;;;;5003878;28;20121;-62
2024/02/23 06:48:34;;;;;;;1.50;0.45;;;6.80;81.70;;;;;;5005432;28;20041;-61
2024/02/23 06:50:59;;;;;;;6.22;0.45;;;6.80;81.80;;;;;;5000884;28;20034;-62
2024/02/23 06:53:25;;;;;;;1.67;0.30;;;6.90;81.70;;;;;;5006124;28;20493;-62
2024/02/23 06:55:50;;;;;;;0.77;0.30;;;6.90;81.50;;;;;;5006241;28;20042;-62
2024/02/23 06:58:18;;;;;;;4.55;0.20;;;6.90;81.30;;;;;;5005412;28;20465;-61
2024/02/23 07:00:43;;;;;;;2.58;0.30;;;6.90;81.30;;;;;;5001819;28;20026;-61
2024/02/23 07:03:09;;;;;;;1.20;0.20;;;6.90;81.30;;;;;;5006510;28;20040;-62
2024/02/23 07:05:35;;;;;;;1.02;0.30;;;6.90;81.30;;;;;;5001266;28;20405;-61
2024/02/23 07:08:01;;;;;;;2.95;0.98;;;6.90;81.40;;;;;;5002749;28;20441;-62
2024/02/23 07:10:27;;;;;;;1.00;0.60;;;6.90;81.40;;;;;;5003795;28;20116;-61
2024/02/23 07:12:53;;;;;;;1.70;0.57;;;7.00;81.40;;;;;;5001914;28;20516;-62
2024/02/23 07:15:22;;;;;;;3.92;0.70;;;7.00;81.30;;;;;;5002436;28;20095;-62
2024/02/23 07:17:48;;;;;;;3.20;0.75;;;7.00;81.20;;;;;;5003209;28;20034;-62
2024/02/23 07:20:14;;;;;;;4.07;2.00;;;7.00;81.20;;;;;;5001807;28;20037;-62
2024/02/23 07:22:42;;;;;;;2.35;1.40;;;7.10;81.20;;;;;;5000661;28;20034;-62
2024/02/23 07:25:08;;;;;;;2.15;0.40;;;7.00;81.30;;;;;;5005392;28;20044;-62
2024/02/23 07:27:34;;;;;;;2.30;0.43;;;7.00;81.10;;;;;;5005106;28;20038;-62
2024/02/23 07:29:59;;;;;;;2.80;0.40;;;7.00;80.70;;;;;;5006366;28;20037;-63
2024/02/23 07:32:25;;;;;;;0.47;0.30;;;7.00;80.70;;;;;;5005564;28;20080;-62
2024/02/23 07:34:50;;;;;;;1.55;0.40;;;7.00;80.70;;;;;;5003640;28;20080;-62
2024/02/23 07:37:16;;;;;;;2.72;0.52;;;7.00;80.60;;;;;;4998722;28;20035;-63
2024/02/23 07:39:42;;;;;;;2.15;0.50;;;7.00;80.60;;;;;;4997980;28;20087;-62
2024/02/23 07:42:10;;;;;;;2.25;1.00;;;6.90;80.80;;;;;;5001241;28;20037;-62
2024/02/23 07:44:35;;;;;;;19.27;8.95;;;6.90;80.80;;;;;;5004788;28;20049;-62
2024/02/23 07:47:01;;;;;;;10.57;5.93;;;6.90;81.70;;;;;;5004872;28;20038;-62
2024/02/23 07:49:28;;;;;;;4.53;2.80;;;6.90;80.90;;;;;;5000626;28;20045;-62
2024/02/23 07:51:54;;;;;;;2.13;1.10;;;6.90;80.80;;;;;;5009020;28;20093;-62
2024/02/23 07:54:19;;;;;;;2.85;1.10;;;7.00;80.80;;;;;;5007368;28;20042;-61
2024/02/23 07:56:45;;;;;;;3.58;0.50;;;7.00;80.80;;;;;;5008599;28;20116;-62
2024/02/23 07:59:11;;;;;;;2.13;0.55;;;6.90;80.60;;;;;;5008035;28;20076;-62
2024/02/23 08:01:37;;;;;;;3.80;0.63;;;6.90;80.40;;;;;;5004444;28;20058;-62
2024/02/23 08:04:03;;;;;;;2.83;0.90;;;6.90;80.50;;;;;;5008788;28;20030;-61
2024/02/23 08:06:28;;;;;;;2.38;0.70;;;6.90;80.50;;;;;;5002517;28;20055;-60
2024/02/23 08:08:55;;;;;;;2.15;1.00;;;6.90;80.60;;;;;;5008752;28;20049;-61
2024/02/23 08:11:20;;;;;;;1.13;0.47;;;6.90;80.60;;;;;;5005152;28;20036;-63
2024/02/23 08:13:46;;;;;;;3.33;0.50;;;6.90;80.60;;;;;;5008273;28;20046;-60
2024/02/23 08:16:12;;;;;;;1.73;0.40;;;6.80;80.50;;;;;;5008182;28;20033;-62
2024/02/23 08:18:37;;;;;;;3.50;0.57;;;6.90;80.50;;;;;;5009658;28;20038;-62
2024/02/23 08:21:05;;;;;;;1.92;0.50;;;6.90;80.30;;;;;;5008982;28;20676;-62
2024/02/23 08:23:31;;;;;;;5.13;0.50;;;6.80;80.10;;;;;;5005895;28;20042;-61
2024/02/23 08:25:58;;;;;;;3.08;0.40;;;6.80;80.10;;;;;;5002405;28;20090;-61
2024/02/23 08:28:24;;;;;;;4.35;0.70;;;6.80;80.10;;;;;;5005367;28;20287;-62
2024/02/23 08:30:49;;;;;;;2.97;0.77;;;6.80;79.80;;;;;;5008141;28;20437;-60
2024/02/23 08:33:15;;;;;;;1.73;0.60;;;6.80;79.60;;;;;;5009361;28;20107;-62
2024/02/23 08:35:41;;;;;;;1.80;0.63;;;6.80;79.40;;;;;;5006125;28;20034;-61
2024/02/23 08:38:07;;;;;;;2.60;0.50;;;6.80;79.30;;;;;;5010193;28;20080;-62
2024/02/23 08:40:32;;;;;;;1.30;0.43;;;6.80;79.30;;;;;;5007790;28;20030;-62
2024/02/23 08:42:58;;;;;;;2.22;0.40;;;6.90;79.20;;;;;;5006660;28;20417;-61
2024/02/23 08:45:23;;;;;;;1.58;0.60;;;6.80;78.90;;;;;;5008179;28;20044;-62
2024/02/23 08:47:49;;;;;;;3.33;0.70;;;6.90;78.90;;;;;;5005927;28;20046;-62
2024/02/23 08:50:15;;;;;;;2.72;0.70;;;6.90;79.00;;;;;;5001697;28;20038;-62
2024/02/23 08:52:40;;;;;;;1.35;0.55;;;6.90;78.80;;;;;;5004933;28;20749;-62
2024/02/23 08:55:06;;;;;;;2.63;0.50;;;6.90;78.70;;;;;;5006888;28;20199;-61
2024/02/23 08:57:32;;;;;;;4.65;0.77;;;6.90;78.20;;;;;;5005651;28;20038;-62
2024/02/23 08:59:57;;;;;;;3.25;0.57;;;7.00;78.20;;;;;;5005634;28;20038;-62
2024/02/23 09:02:24;;;;;;;1.70;0.68;;;6.90;78.00;;;;;;5004566;28;20076;-62
2024/02/23 09:04:49;;;;;;;2.92;0.40;;;7.00;78.80;;;;;;5004940;28;20072;-62
2024/02/23 09:07:15;;;;;;;4.00;0.70;;;7.00;77.50;;;;;;5003108;28;20081;-62
2024/02/23 09:09:41;;;;;;;2.63;0.70;;;7.00;77.50;;;;;;5001946;28;20042;-62
2024/02/23 09:12:10;;;;;;;2.58;0.45;;;7.00;77.50;;;;;;5007002;28;20506;-61
2024/02/23 09:14:37;;;;;;;1.60;0.50;;;7.00;77.30;;;;;;5008179;28;20125;-62
2024/02/23 09:17:04;;;;;;;2.78;0.50;;;7.10;77.20;;;;;;5003848;28;20034;-62
2024/02/23 09:19:30;;;;;;;3.08;0.52;;;7.10;77.00;;;;;;5006356;28;20464;-62
2024/02/23 09:21:55;;;;;;;3.50;0.93;;;7.00;77.10;;;;;;5005007;28;20049;-61
2024/02/23 09:24:21;;;;;;;3.78;0.80;;;7.10;77.10;;;;;;5007685;28;20135;-60
2024/02/23 09:26:47;;;;;;;4.43;1.00;;;7.10;77.10;;;;;;5004271;28;20168;-62
2024/02/23 09:29:13;;;;;;;4.45;0.88;;;7.10;76.70;;;;;;5008164;28;20044;-62
2024/02/23 09:31:39;;;;;;;3.60;0.93;;;7.10;76.50;;;;;;5004944;28;20088;-62
2024/02/23 09:34:04;;;;;;;4.65;0.80;;;7.10;76.30;;;;;;5004482;28;20026;-61
2024/02/23 09:36:30;;;;;;;3.83;0.68;;;7.10;76.30;;;;;;5003945;28;20405;-62
2024/02/23 09:38:56;;;;;;;5.10;1.10;;;7.10;76.30;;;;;;5004937;28;20044;-62
2024/02/23 09:41:23;;;;;;;5.25;0.80;;;7.10;76.10;;;;;;5008324;28;20057;-62
2024/02/23 09:43:49;;;;;;;4.80;0.60;;;7.10;75.90;;;;;;5003014;28;20049;-62
2024/02/23 09:46:18;;;;;;;5.07;0.70;;;7.10;75.90;;;;;;5005913;28;20036;-62
2024/02/23 09:48:44;;;;;;;4.63;0.60;;;7.10;75.70;;;;;;5006460;28;20026;-62
2024/02/23 09:51:11;;;;;;;3.33;0.50;;;7.10;75.90;;;;;;5004720;28;20120;-61
2024/02/23 09:53:38;;;;;;;4.65;0.70;;;7.10;76.00;;;;;;5004102;28;20085;-62
2024/02/23 09:56:05;;;;;;;2.92;0.60;;;7.10;76.00;;;;;;5002263;28;20038;-62
2024/02/23 09:58:35;;;;;;;3.00;1.08;;;7.10;76.00;;;;;;5004118;28;20093;-62
2024/02/23 10:01:02;;;;;;;5.53;1.17;;;7.20;76.10;;;;;;5007527;28;20590;-61
2024/02/23 10:03:30;;;;;;;10.40;5.88;;;7.20;77.00;;;;;;5004678;28;21119;-61
2024/02/23 10:05:56;;;;;;;5.50;1.25;;;7.20;76.10;;;;;;5002479;28;20034;-62
2024/02/23 10:08:22;;;;;;;8.65;1.55;;;7.20;76.10;;;;;;5005252;28;20510;-62
2024/02/23 10:10:50;;;;;;;3.05;1.27;;;7.30;76.20;;;;;;5004548;28;20084;-62
2024/02/23 10:13:26;;;;;;;3.88;1.25;;;7.30;76.10;;;;;;5004882;28;20118;-62
2024/02/23 10:15:52;;;;;;;4.45;2.40;;;7.30;75.70;;;;;;5005861;28;20541;-62
2024/02/23 10:18:18;;;;;;;4.05;1.60;;;7.20;76.00;;;;;;5006043;28;20044;-62
2024/02/23 10:20:44;;;;;;;5.45;1.52;;;7.20;76.00;;;;;;5004594;28;20030;-62
2024/02/23 10:23:10;;;;;;;4.68;1.48;;;7.30;76.20;;;;;;5000148;28;20142;-63
2024/02/23 10:25:36;;;;;;;4.65;1.45;;;7.20;76.10;;;;;;5005126;28;20037;-62
2024/02/23 10:28:03;;;;;;;3.72;0.88;;;7.30;76.20;;;;;;5002574;28;20112;-62
2024/02/23 10:30:29;;;;;;;3.35;1.20;;;7.20;75.80;;;;;;5004305;28;20033;-63
2024/02/23 10:32:56;;;;;;;4.75;0.55;;;7.30;76.00;;;;;;5002743;28;20041;-62
2024/02/23 10:35:24;;;;;;;4.63;0.90;;;7.20;76.10;;;;;;5004731;28;20041;-62
2024/02/23 10:37:52;;;;;;;7.72;0.88;;;7.20;76.10;;;;;;5005208;28;20053;-62
2024/02/23 10:40:18;;;;;;;4.70;1.10;;;7.20;76.10;;;;;;5002128;28;20045;-59
2024/02/23 10:42:51;;;;;;;7.18;1.50;;;7.20;76.00;;;;;;5004786;28;20037;-62
2024/02/23 10:45:18;;;;;;;3.38;1.20;;;7.20;76.00;;;;;;5005710;28;20038;-62
2024/02/23 10:47:43;;;;;;;3.63;1.00;;;7.20;76.10;;;;;;5003642;28;20568;-62
2024/02/23 10:50:09;;;;;;;4.93;1.20;;;7.20;76.10;;;;;;5003766;28;20049;-61
2024/02/23 10:52:36;;;;;;;4.68;1.50;;;7.20;77.10;;;;;;5002065;28;20041;-61
2024/02/23 10:55:04;;;;;;;2.88;1.10;;;7.20;76.30;;;;;;5004461;28;20034;-62
2024/02/23 10:57:32;;;;;;;2.30;1.10;;;7.20;77.30;;;;;;5005258;28;20070;-62
2024/02/23 10:59:58;;;;;;;4.05;0.98;;;7.30;76.70;;;;;;5007273;28;20034;-61
2024/02/23 11:02:25;;;;;;;4.10;0.60;;;7.20;76.80;;;;;;5005868;28;20045;-62
2024/02/23 11:04:53;;;;;;;3.45;0.80;;;7.30;77.00;;;;;;5008019;28;20405;-60
2024/02/23 11:07:19;;;;;;;4.07;0.82;;;7.30;77.20;;;;;;5008516;28;20048;-62
2024/02/23 11:10:00;;;;;;;2.47;0.63;;;7.30;77.20;;;;;;5003014;28;20042;-62
2024/02/23 11:12:29;;;;;;;3.45;0.70;;;7.40;77.20;;;;;;5004147;28;20041;-62
2024/02/23 11:14:59;;;;;;;3.50;0.77;;;7.40;77.20;;;;;;5007575;28;20176;-61
2024/02/23 11:17:28;;;;;;;4.07;1.30;;;7.40;77.20;;;;;;5007361;28;20576;-62
2024/02/23 11:19:55;;;;;;;5.05;1.00;;;7.40;77.30;;;;;;5004001;28;20164;-61
2024/02/23 11:22:30;;;;;;;5.95;0.70;;;7.40;77.30;;;;;;5008012;28;20076;-62
2024/02/23 11:25:11;;;;;;;;;;;7.50;77.20;;;;;;5004714;28;20030;-62
2024/02/23 11:27:38;;;;;;;4.30;0.93;;;7.50;77.20;;;;;;5012450;28;19959;-60
2024/02/23 11:30:10;;;;;;;7.75;0.85;;;7.50;77.30;;;;;;5007658;28;20119;-62
2024/02/23 11:32:47;;;;;;;3.45;1.00;;;7.50;77.20;;;;;;5009553;28;20128;-61
2024/02/23 11:35:14;;;;;;;1.45;0.80;;;7.50;77.10;;;;;;5011190;28;20041;-60
2024/02/23 11:38:01;;;;;;;1.83;0.80;;;7.50;77.20;;;;;;5011136;28;20069;-62
2024/02/23 11:40:27;;;;;;;3.05;1.25;;;7.50;77.10;;;;;;5011779;28;20040;-62
2024/02/23 11:42:55;;;;;;;2.80;0.60;;;7.50;77.20;;;;;;5008350;28;20041;-62
2024/02/23 11:45:21;;;;;;;3.28;0.77;;;7.60;77.30;;;;;;5002074;28;20038;-61
2024/02/23 11:47:46;;;;;;;2.20;0.65;;;7.50;77.30;;;;;;5005437;28;20484;-62
2024/02/23 11:50:13;;;;;;;2.63;0.50;;;7.50;77.30;;;;;;5002090;28;20054;-60
2024/02/23 11:52:39;;;;;;;3.17;0.55;;;7.60;77.40;;;;;;5004835;28;20034;-62
2024/02/23 11:55:05;;;;;;;3.88;0.90;;;7.60;77.30;;;;;;5006569;28;20101;-61
2024/02/23 11:57:32;;;;;;;2.15;0.60;;;7.60;77.40;;;;;;5007012;28;20121;-62
2024/02/23 11:59:58;;;;;;;2.25;0.70;;;7.60;77.50;;;;;;5004187;28;20030;-62
2024/02/23 12:02:24;;;;;;;5.45;0.80;;;7.60;77.80;;;;;;5009082;28;20030;-62
2024/02/23 12:04:50;;;;;;;2.30;0.77;;;7.70;77.70;;;;;;5000755;28;20080;-62
2024/02/23 12:07:16;;;;;;;2.30;0.70;;;7.70;77.60;;;;;;5005503;28;20101;-61
2024/02/23 12:09:42;;;;;;;5.18;0.95;;;7.70;77.60;;;;;;5005427;28;20042;-62
2024/02/23 12:12:09;;;;;;;3.70;1.23;;;7.70;77.50;;;;;;5007279;28;20673;-62
2024/02/23 12:14:38;;;;;;;2.30;0.82;;;7.80;77.60;;;;;;5006294;28;20180;-64
2024/02/23 12:17:05;;;;;;;3.30;1.00;;;7.80;77.60;;;;;;5005969;28;20128;-61
2024/02/23 12:19:31;;;;;;;2.00;0.57;;;7.80;77.60;;;;;;5004590;28;20040;-63
2024/02/23 12:22:01;;;;;;;2.70;1.13;;;7.80;77.30;;;;;;5006006;28;20039;-64
2024/02/23 12:24:28;;;;;;;2.75;0.80;;;7.80;77.30;;;;;;5009738;28;20042;-60
2024/02/23 12:26:56;;;;;;;3.17;0.90;;;7.80;77.40;;;;;;5007586;28;20042;-63
2024/02/23 12:29:22;;;;;;;2.97;0.80;;;7.80;77.30;;;;;;5004427;28;20037;-62
2024/02/23 12:31:48;;;;;;;2.38;0.77;;;7.80;77.50;;;;;;5006086;28;20089;-61
2024/02/23 12:34:14;;;;;;;4.00;0.80;;;7.90;77.70;;;;;;5008297;28;20034;-63
2024/02/23 12:36:40;;;;;;;2.25;0.80;;;7.90;77.90;;;;;;5001979;28;20582;-64
2024/02/23 12:39:06;;;;;;;2.20;1.27;;;7.90;77.90;;;;;;5007233;28;20041;-61
2024/02/23 12:41:32;;;;;;;3.92;1.70;;;7.90;78.00;;;;;;5003861;28;20121;-58
2024/02/23 12:43:58;;;;;;;12.32;5.53;;;7.90;78.10;;;;;;5006268;28;20073;-62
2024/02/23 12:46:23;;;;;;;14.75;6.45;;;7.90;78.00;;;;;;5006997;28;20547;-61
2024/02/23 12:48:50;;;;;;;9.50;4.47;;;7.90;78.10;;;;;;5004747;28;20030;-61
2024/02/23 12:51:16;;;;;;;5.15;2.72;;;8.00;78.20;;;;;;5008045;28;20034;-63
2024/02/23 12:53:42;;;;;;;4.13;1.70;;;8.00;78.30;;;;;;5006399;28;20449;-62